Time;durP1;ratioP1;P1;durP2;ratioP2;P2;SDS_P1;SDS_P2;PMS_P1;PMS_P2;Temp;Humidity;BMP_temperature;BMP_pressure;BME280_temperature;BME280_humidity;BME280_pressure;Samples;Min_cycle;Max_cycle;Signal;HPM_P1;HPM_P2
2022/04/24 00:01:34;;;;;;;10.50;6.65;;;;;;;;;;5024503;28;20235;-57
2022/04/24 00:04:00;;;;;;;9.32;6.40;;;;;;;;;;5025076;28;20051;-57
2022/04/24 00:06:27;;;;;;;9.68;6.35;;;;;;;;;;5026042;28;20052;-56
2022/04/24 00:08:53;;;;;;;10.60;6.85;;;;;;;;;;5023550;28;20037;-56
2022/04/24 00:11:19;;;;;;;9.30;6.43;;;;;;;;;;5024539;28;20041;-57
2022/04/24 00:13:45;;;;;;;11.30;6.28;;;;;;;;;;5024186;28;21789;-57
2022/04/24 00:16:11;;;;;;;11.60;6.47;;;;;;;;;;5042714;28;20045;-57
2022/04/24 00:18:38;;;;;;;11.40;6.78;;;;;;;;;;5024857;28;20405;-56
2022/04/24 00:21:04;;;;;;;8.85;6.03;;;;;;;;;;5024000;28;20041;-57
2022/04/24 00:23:31;;;;;;;11.13;6.53;;;;;;;;;;5023367;28;20052;-57
2022/04/24 00:25:58;;;;;;;10.07;6.45;;;;;;;;;;5025951;28;20041;-57
2022/04/24 00:28:24;;;;;;;12.50;6.57;;;;;;;;;;5024062;28;20045;-56
2022/04/24 00:30:50;;;;;;;11.25;5.72;;;;;;;;;;5024287;28;20045;-56
2022/04/24 00:33:16;;;;;;;9.52;6.15;;;;;;;;;;5035569;28;20075;-57
2022/04/24 00:35:42;;;;;;;9.57;6.13;;;;;;;;;;5042998;28;20689;-56
2022/04/24 00:38:09;;;;;;;9.48;6.03;;;;;;;;;;5040855;28;20466;-57
2022/04/24 00:40:35;;;;;;;14.88;6.47;;;;;;;;;;5010504;28;20153;-57
2022/04/24 00:43:01;;;;;;;9.23;5.35;;;;;;;;;;5024156;28;20720;-57
2022/04/24 00:45:27;;;;;;;10.98;6.47;;;;;;;;;;5024513;28;20168;-56
2022/04/24 00:47:53;;;;;;;14.60;6.72;;;;;;;;;;5023921;28;20041;-57
2022/04/24 00:50:20;;;;;;;12.48;6.20;;;;;;;;;;5024968;28;20253;-57
2022/04/24 00:52:47;;;;;;;10.23;6.03;;;;;;;;;;5022974;28;20077;-57
2022/04/24 00:55:13;;;;;;;7.95;5.93;;;;;;;;;;5023656;28;20117;-57
2022/04/24 00:57:41;;;;;;;10.73;6.00;;;;;;;;;;5031623;28;20083;-57
2022/04/24 01:00:08;;;;;;;15.07;6.13;;;;;;;;;;5035580;28;20091;-56
2022/04/24 01:02:34;;;;;;;10.98;6.40;;;;;;;;;;5029549;28;20081;-57
2022/04/24 01:05:01;;;;;;;8.30;5.47;;;;;;;;;;5006069;28;20488;-57
2022/04/24 01:07:27;;;;;;;8.65;5.85;;;;;;;;;;5035816;23;20479;-56
2022/04/24 01:09:53;;;;;;;9.65;5.70;;;;;;;;;;5003397;28;20045;-57
2022/04/24 01:12:19;;;;;;;13.82;5.93;;;;;;;;;;5003507;28;20046;-56
2022/04/24 01:14:45;;;;;;;10.70;6.00;;;;;;;;;;5004329;28;20130;-56
2022/04/24 01:17:11;;;;;;;12.88;6.60;;;;;;;;;;5004370;28;20088;-56
2022/04/24 01:19:37;;;;;;;7.20;5.55;;;;;;;;;;5005362;28;20054;-56
2022/04/24 01:22:04;;;;;;;9.35;6.00;;;;;;;;;;5003391;28;20418;-56
2022/04/24 01:24:30;;;;;;;9.25;6.05;;;;;;;;;;5004949;28;20450;-56
2022/04/24 01:26:56;;;;;;;10.20;6.18;;;;;;;;;;5007764;28;20041;-56
2022/04/24 01:29:23;;;;;;;11.63;6.00;;;;;;;;;;5007832;28;20046;-55
2022/04/24 01:31:49;;;;;;;9.20;6.15;;;;;;;;;;5008798;28;20088;-56
2022/04/24 01:34:15;;;;;;;12.57;6.63;;;;;;;;;;5023714;28;20046;-57
2022/04/24 01:36:42;;;;;;;10.57;6.32;;;;;;;;;;5025714;28;20043;-56
2022/04/24 01:39:08;;;;;;;10.15;6.07;;;;;;;;;;5025198;28;20045;-56
2022/04/24 01:41:35;;;;;;;10.43;6.57;;;;;;;;;;5026265;28;20048;-57
2022/04/24 01:44:01;;;;;;;15.68;6.15;;;;;;;;;;5008285;28;20053;-57
2022/04/24 01:46:27;;;;;;;12.13;6.43;;;;;;;;;;5025064;28;20045;-56
2022/04/24 01:48:53;;;;;;;11.02;6.40;;;;;;;;;;5025091;28;20536;-57
2022/04/24 01:51:19;;;;;;;11.52;6.55;;;;;;;;;;5025740;28;20736;-57
2022/04/24 01:53:46;;;;;;;13.70;6.07;;;;;;;;;;5024846;28;20048;-56
2022/04/24 01:56:13;;;;;;;9.60;6.43;;;;;;;;;;5025868;28;20034;-55
2022/04/24 01:58:40;;;;;;;10.40;6.63;;;;;;;;;;5022886;28;20041;-55
2022/04/24 02:01:07;;;;;;;10.57;6.90;;;;;;;;;;5008235;28;20042;-56
2022/04/24 02:03:33;;;;;;;9.25;6.55;;;;;;;;;;5025535;28;20045;-56
2022/04/24 02:05:59;;;;;;;12.13;6.70;;;;;;;;;;5026087;28;20116;-56
2022/04/24 02:08:27;;;;;;;10.68;6.28;;;;;;;;;;5024303;28;20056;-55
2022/04/24 02:10:53;;;;;;;11.07;7.10;;;;;;;;;;5023967;28;20599;-56
2022/04/24 02:13:19;;;;;;;9.27;5.95;;;;;;;;;;5025725;28;20135;-56
2022/04/24 02:15:46;;;;;;;8.77;6.07;;;;;;;;;;5019995;28;20039;-56
2022/04/24 02:18:12;;;;;;;9.05;6.47;;;;;;;;;;5006681;28;20048;-56
2022/04/24 02:20:39;;;;;;;11.45;6.50;;;;;;;;;;5007098;28;20038;-55
2022/04/24 02:23:05;;;;;;;12.35;6.50;;;;;;;;;;5007442;28;20041;-56
2022/04/24 02:25:32;;;;;;;11.27;6.60;;;;;;;;;;5006639;28;20315;-56
2022/04/24 02:27:58;;;;;;;11.70;6.38;;;;;;;;;;5006951;28;20046;-56
2022/04/24 02:30:25;;;;;;;11.93;6.68;;;;;;;;;;5006715;28;20077;-55
2022/04/24 02:32:52;;;;;;;9.75;7.03;;;;;;;;;;4989960;28;20048;-56
2022/04/24 02:35:19;;;;;;;16.48;6.45;;;;;;;;;;5022917;28;20051;-56
2022/04/24 02:37:45;;;;;;;13.70;7.30;;;;;;;;;;5023302;28;20049;-56
2022/04/24 02:40:11;;;;;;;10.32;6.40;;;;;;;;;;5024960;28;20042;-56
2022/04/24 02:42:38;;;;;;;12.35;6.88;;;;;;;;;;5025221;28;20048;-56
2022/04/24 02:45:05;;;;;;;11.63;6.45;;;;;;;;;;5006560;28;20073;-56
2022/04/24 02:47:31;;;;;;;10.65;6.57;;;;;;;;;;5005929;28;20117;-57
2022/04/24 02:49:57;;;;;;;10.50;6.25;;;;;;;;;;5007451;28;20045;-57
2022/04/24 02:52:23;;;;;;;10.82;6.70;;;;;;;;;;5005362;28;20042;-56
2022/04/24 02:54:49;;;;;;;10.93;6.90;;;;;;;;;;4987754;28;20391;-57
2022/04/24 02:57:16;;;;;;;10.23;7.07;;;;;;;;;;5006007;28;20049;-56
2022/04/24 02:59:42;;;;;;;12.52;7.20;;;;;;;;;;5006084;28;20050;-56
2022/04/24 03:02:09;;;;;;;12.75;7.00;;;;;;;;;;5007209;28;20064;-56
2022/04/24 03:04:36;;;;;;;10.75;6.25;;;;;;;;;;5010103;28;20083;-56
2022/04/24 03:07:02;;;;;;;11.55;6.68;;;;;;;;;;5023444;28;20049;-56
2022/04/24 03:09:28;;;;;;;11.10;6.75;;;;;;;;;;5003749;28;20454;-57
2022/04/24 03:11:54;;;;;;;10.10;6.25;;;;;;;;;;4998302;28;20174;-56
2022/04/24 03:14:21;;;;;;;9.95;6.75;;;;;;;;;;4987680;28;20113;-56
2022/04/24 03:16:47;;;;;;;9.88;6.25;;;;;;;;;;4985992;28;20054;-57
2022/04/24 03:19:13;;;;;;;12.07;6.68;;;;;;;;;;4986404;28;20503;-56
2022/04/24 03:21:39;;;;;;;12.90;6.20;;;;;;;;;;4985661;28;20046;-57
2022/04/24 03:24:05;;;;;;;10.75;6.07;;;;;;;;;;4985624;28;20035;-56
2022/04/24 03:26:31;;;;;;;11.07;6.38;;;;;;;;;;4987375;28;20081;-56
2022/04/24 03:28:57;;;;;;;10.93;6.55;;;;;;;;;;4986177;28;20168;-56
2022/04/24 03:31:24;;;;;;;9.98;6.30;;;;;;;;;;4986563;28;20047;-56
2022/04/24 03:33:52;;;;;;;11.40;6.57;;;;;;;;;;4993343;28;20095;-56
2022/04/24 03:36:18;;;;;;;12.15;6.70;;;;;;;;;;5004646;28;20052;-57
2022/04/24 03:38:45;;;;;;;10.45;6.35;;;;;;;;;;5000270;28;20057;-57
2022/04/24 03:41:11;;;;;;;9.50;6.15;;;;;;;;;;5004069;28;20686;-56
2022/04/24 03:43:37;;;;;;;9.20;6.80;;;;;;;;;;5003736;28;20037;-57
2022/04/24 03:46:05;;;;;;;12.80;6.55;;;;;;;;;;5004317;28;20079;-56
2022/04/24 03:48:32;;;;;;;9.77;6.35;;;;;;;;;;5001349;28;20057;-57
2022/04/24 03:50:58;;;;;;;15.48;7.00;;;;;;;;;;5004727;28;20053;-56
2022/04/24 03:53:24;;;;;;;12.73;6.70;;;;;;;;;;5002200;28;20124;-56
2022/04/24 03:55:50;;;;;;;11.27;6.65;;;;;;;;;;4985011;28;20034;-56
2022/04/24 03:58:16;;;;;;;10.60;6.78;;;;;;;;;;4984357;28;20514;-56
2022/04/24 04:00:42;;;;;;;16.52;6.80;;;;;;;;;;4984590;28;20042;-56
2022/04/24 04:03:08;;;;;;;17.58;7.00;;;;;;;;;;4985677;28;20042;-56
2022/04/24 04:05:38;;;;;;;10.95;6.50;;;;;;;;;;4986228;28;20046;-56
2022/04/24 04:08:04;;;;;;;14.77;7.00;;;;;;;;;;4992053;28;20108;-56
2022/04/24 04:10:31;;;;;;;15.00;6.60;;;;;;;;;;5004741;28;20100;-57
2022/04/24 04:12:57;;;;;;;10.05;6.72;;;;;;;;;;5018692;28;20049;-56
2022/04/24 04:15:24;;;;;;;10.32;6.28;;;;;;;;;;5023282;28;20037;-54
2022/04/24 04:17:50;;;;;;;10.18;6.30;;;;;;;;;;5021896;28;20056;-56
2022/04/24 04:20:17;;;;;;;10.52;6.60;;;;;;;;;;5023242;28;20045;-56
2022/04/24 04:22:45;;;;;;;11.05;6.97;;;;;;;;;;5022719;28;20095;-56
2022/04/24 04:25:11;;;;;;;10.55;6.45;;;;;;;;;;5023283;28;20447;-56
2022/04/24 04:27:37;;;;;;;9.57;6.38;;;;;;;;;;5021287;28;20044;-56
2022/04/24 04:30:04;;;;;;;11.82;6.50;;;;;;;;;;5021785;28;20128;-56
2022/04/24 04:32:30;;;;;;;10.65;6.45;;;;;;;;;;5023272;28;20056;-55
2022/04/24 04:34:56;;;;;;;14.48;7.35;;;;;;;;;;5016011;28;20057;-56
2022/04/24 04:37:22;;;;;;;11.77;7.10;;;;;;;;;;5003600;28;20042;-56
2022/04/24 04:39:48;;;;;;;10.60;6.47;;;;;;;;;;5004238;28;20033;-56
2022/04/24 04:42:14;;;;;;;12.00;6.60;;;;;;;;;;5005559;28;20041;-56
2022/04/24 04:44:40;;;;;;;12.02;6.05;;;;;;;;;;5004057;28;20076;-56
2022/04/24 04:47:07;;;;;;;12.73;5.95;;;;;;;;;;5004237;28;20042;-57
2022/04/24 04:49:33;;;;;;;13.75;6.80;;;;;;;;;;5004514;28;20038;-56
2022/04/24 04:51:59;;;;;;;12.60;6.53;;;;;;;;;;5004123;28;20042;-56
2022/04/24 04:54:25;;;;;;;9.63;6.18;;;;;;;;;;5006039;28;20045;-57
2022/04/24 04:56:51;;;;;;;12.68;6.28;;;;;;;;;;5003621;28;20364;-56
2022/04/24 04:59:18;;;;;;;9.82;6.05;;;;;;;;;;5006095;28;20046;-56
2022/04/24 05:01:44;;;;;;;16.17;6.85;;;;;;;;;;5008261;28;20088;-57
2022/04/24 05:04:10;;;;;;;12.70;6.55;;;;;;;;;;5018951;28;20090;-56
2022/04/24 05:06:37;;;;;;;11.82;6.45;;;;;;;;;;5025569;28;20087;-55
2022/04/24 05:09:04;;;;;;;10.57;6.65;;;;;;;;;;5025268;28;20070;-56
2022/04/24 05:11:31;;;;;;;11.20;6.15;;;;;;;;;;5022320;28;20046;-57
2022/04/24 05:13:57;;;;;;;9.90;6.15;;;;;;;;;;5026562;28;20049;-57
2022/04/24 05:16:23;;;;;;;13.50;6.90;;;;;;;;;;5026496;28;20041;-56
2022/04/24 05:18:49;;;;;;;9.60;5.57;;;;;;;;;;5026173;28;20046;-56
2022/04/24 05:21:17;;;;;;;10.38;6.18;;;;;;;;;;5025240;28;20041;-57
2022/04/24 05:23:45;;;;;;;10.55;6.47;;;;;;;;;;5013532;28;20037;-57
2022/04/24 05:26:12;;;;;;;9.60;5.82;;;;;;;;;;5010451;28;20049;-57
2022/04/24 05:28:38;;;;;;;10.23;5.78;;;;;;;;;;5010856;28;20713;-57
2022/04/24 05:31:05;;;;;;;9.00;5.80;;;;;;;;;;5012750;28;20092;-57
2022/04/24 05:33:32;;;;;;;9.88;5.88;;;;;;;;;;5011040;28;20030;-57
2022/04/24 05:35:58;;;;;;;11.88;6.40;;;;;;;;;;4995105;28;20052;-56
2022/04/24 05:38:25;;;;;;;10.25;5.53;;;;;;;;;;5011746;28;20033;-56
2022/04/24 05:40:51;;;;;;;11.98;6.03;;;;;;;;;;5010321;28;20053;-56
2022/04/24 05:43:17;;;;;;;8.38;6.03;;;;;;;;;;5012118;28;20507;-55
2022/04/24 05:45:43;;;;;;;11.98;6.10;;;;;;;;;;5011284;28;20041;-57
2022/04/24 05:48:10;;;;;;;10.88;6.18;;;;;;;;;;5011614;28;20076;-56
2022/04/24 05:50:36;;;;;;;12.38;6.63;;;;;;;;;;5011207;28;20081;-57
2022/04/24 05:53:02;;;;;;;10.45;6.28;;;;;;;;;;5012066;28;20049;-56
2022/04/24 05:55:28;;;;;;;10.45;5.63;;;;;;;;;;5009983;28;20077;-57
2022/04/24 05:57:54;;;;;;;10.98;6.43;;;;;;;;;;5010203;28;20037;-57
2022/04/24 06:00:22;;;;;;;11.27;6.15;;;;;;;;;;5012523;28;20049;-57
2022/04/24 06:02:48;;;;;;;11.47;6.00;;;;;;;;;;5013305;28;20047;-56
2022/04/24 06:05:14;;;;;;;9.68;6.35;;;;;;;;;;5025003;28;20107;-55
2022/04/24 06:07:41;;;;;;;10.15;6.07;;;;;;;;;;5022260;28;20045;-57
2022/04/24 06:10:08;;;;;;;9.75;6.57;;;;;;;;;;5008714;28;20049;-57
2022/04/24 06:12:46;;;;;;;10.45;6.10;;;;;;;;;;5005116;28;20069;-57
2022/04/24 06:15:15;;;;;;;13.88;6.90;;;;;;;;;;5011274;28;20049;-56
2022/04/24 06:17:42;;;;;;;13.73;6.75;;;;;;;;;;5005244;28;20061;-57
2022/04/24 06:20:09;;;;;;;13.80;6.22;;;;;;;;;;5005568;28;20042;-56
2022/04/24 06:22:44;;;;;;;12.20;7.30;;;;;;;;;;5004584;28;20679;-56
2022/04/24 06:25:14;;;;;;;11.07;6.78;;;;;;;;;;5009586;28;20060;-55
2022/04/24 06:27:41;;;;;;;12.65;6.88;;;;;;;;;;5006186;28;20077;-56
2022/04/24 06:30:07;;;;;;;13.90;6.95;;;;;;;;;;5005974;28;20571;-57
2022/04/24 06:32:38;;;;;;;17.15;7.47;;;;;;;;;;5009288;28;20145;-56
2022/04/24 06:35:05;;;;;;;12.10;6.78;;;;;;;;;;5005113;28;20042;-56
2022/04/24 06:37:31;;;;;;;11.32;5.78;;;;;;;;;;5004642;28;20045;-57
2022/04/24 06:39:57;;;;;;;12.13;6.78;;;;;;;;;;5005130;28;20068;-56
2022/04/24 06:42:23;;;;;;;17.75;7.18;;;;;;;;;;5005378;28;20073;-57
2022/04/24 06:44:49;;;;;;;14.70;7.35;;;;;;;;;;5004970;28;20046;-56
2022/04/24 06:47:16;;;;;;;13.10;6.88;;;;;;;;;;5004986;28;20034;-56
2022/04/24 06:49:42;;;;;;;10.13;5.75;;;;;;;;;;5004460;28;20073;-56
2022/04/24 06:52:08;;;;;;;10.07;6.53;;;;;;;;;;5004284;28;20831;-56
2022/04/24 06:54:34;;;;;;;10.73;6.68;;;;;;;;;;5005082;28;20049;-56
2022/04/24 06:57:01;;;;;;;13.02;7.10;;;;;;;;;;5004567;28;20120;-56
2022/04/24 06:59:28;;;;;;;10.50;6.35;;;;;;;;;;5005440;28;20099;-56
2022/04/24 07:01:55;;;;;;;12.35;6.20;;;;;;;;;;5004653;28;20120;-56
2022/04/24 07:04:21;;;;;;;11.13;6.13;;;;;;;;;;5004782;28;20987;-56
2022/04/24 07:06:47;;;;;;;10.93;6.05;;;;;;;;;;5007727;28;20407;-57
2022/04/24 07:09:13;;;;;;;9.63;6.03;;;;;;;;;;5012953;28;20050;-57
2022/04/24 07:11:40;;;;;;;11.00;6.65;;;;;;;;;;5003484;28;20049;-57
2022/04/24 07:14:06;;;;;;;12.10;5.93;;;;;;;;;;5017634;28;20073;-57
2022/04/24 07:16:35;;;;;;;9.15;5.88;;;;;;;;;;5007477;28;20042;-57
2022/04/24 07:19:01;;;;;;;14.00;6.20;;;;;;;;;;5003769;28;20074;-58
2022/04/24 07:21:28;;;;;;;7.45;5.18;;;;;;;;;;5007534;28;20045;-57
2022/04/24 07:23:54;;;;;;;12.23;5.65;;;;;;;;;;5004001;28;20052;-57
2022/04/24 07:26:20;;;;;;;13.35;5.32;;;;;;;;;;5007195;28;20050;-55
2022/04/24 07:28:46;;;;;;;9.25;5.15;;;;;;;;;;5003984;28;20107;-57
2022/04/24 07:31:14;;;;;;;8.43;4.68;;;;;;;;;;5004184;28;20056;-57
2022/04/24 07:33:40;;;;;;;9.27;4.93;;;;;;;;;;5003777;28;20046;-55
2022/04/24 07:36:07;;;;;;;9.18;4.35;;;;;;;;;;5003100;28;20798;-57
2022/04/24 07:38:33;;;;;;;9.30;4.35;;;;;;;;;;5005068;28;20037;-57
2022/04/24 07:41:00;;;;;;;9.18;4.35;;;;;;;;;;5004686;28;20053;-57
2022/04/24 07:43:26;;;;;;;11.38;4.57;;;;;;;;;;5004000;28;20172;-58
2022/04/24 07:45:53;;;;;;;10.82;4.00;;;;;;;;;;5003971;28;20057;-56
2022/04/24 07:48:19;;;;;;;9.70;4.38;;;;;;;;;;4988766;28;20042;-57
2022/04/24 07:50:51;;;;;;;9.35;3.90;;;;;;;;;;5004719;28;20053;-57
2022/04/24 07:53:18;;;;;;;9.48;4.25;;;;;;;;;;5008344;28;20091;-58
2022/04/24 07:55:45;;;;;;;8.02;4.10;;;;;;;;;;5003608;28;20053;-57
2022/04/24 07:58:12;;;;;;;6.00;3.55;;;;;;;;;;5008902;28;20129;-57
2022/04/24 08:00:38;;;;;;;7.53;3.50;;;;;;;;;;5005013;28;20045;-57
2022/04/24 08:03:06;;;;;;;6.18;3.28;;;;;;;;;;5004959;28;20042;-57
2022/04/24 08:05:32;;;;;;;7.03;3.40;;;;;;;;;;5006033;28;20045;-57
2022/04/24 08:08:00;;;;;;;8.23;3.40;;;;;;;;;;5004468;28;20057;-57
2022/04/24 08:10:27;;;;;;;7.07;3.10;;;;;;;;;;5012384;28;20495;-57
2022/04/24 08:12:53;;;;;;;10.32;2.72;;;;;;;;;;5020123;28;20049;-58
2022/04/24 08:15:19;;;;;;;11.00;3.17;;;;;;;;;;5015037;28;20081;-57
2022/04/24 08:17:45;;;;;;;6.40;3.40;;;;;;;;;;5002067;28;20622;-57
2022/04/24 08:20:13;;;;;;;8.82;3.10;;;;;;;;;;5002484;28;20495;-57
2022/04/24 08:22:46;;;;;;;5.72;2.53;;;;;;;;;;5001355;28;20050;-57
2022/04/24 08:25:15;;;;;;;4.43;2.53;;;;;;;;;;5002405;28;20041;-57
2022/04/24 08:27:41;;;;;;;4.30;2.72;;;;;;;;;;5001604;28;20049;-57
2022/04/24 08:30:08;;;;;;;5.35;2.70;;;;;;;;;;5002697;28;20049;-57
2022/04/24 08:32:35;;;;;;;3.53;2.20;;;;;;;;;;5001968;28;20052;-57
2022/04/24 08:35:01;;;;;;;7.75;1.85;;;;;;;;;;5008274;28;20045;-56
2022/04/24 08:37:28;;;;;;;4.75;1.95;;;;;;;;;;5008463;28;20272;-57
2022/04/24 08:39:55;;;;;;;4.75;1.98;;;;;;;;;;5008357;28;20042;-57
2022/04/24 08:42:21;;;;;;;3.92;2.00;;;;;;;;;;5008321;28;20042;-57
2022/04/24 08:44:49;;;;;;;4.68;1.90;;;;;;;;;;5008588;28;20076;-57
2022/04/24 08:47:15;;;;;;;5.22;1.88;;;;;;;;;;5007809;28;20038;-57
2022/04/24 08:49:42;;;;;;;12.68;2.15;;;;;;;;;;4990968;28;20046;-57
2022/04/24 08:52:09;;;;;;;5.57;2.20;;;;;;;;;;5007335;28;20041;-58
2022/04/24 08:54:36;;;;;;;6.77;2.60;;;;;;;;;;5007510;28;20041;-57
2022/04/24 08:57:03;;;;;;;3.90;2.28;;;;;;;;;;5007827;28;20617;-57
2022/04/24 08:59:29;;;;;;;4.15;2.00;;;;;;;;;;5008231;28;20050;-57
2022/04/24 09:01:58;;;;;;;7.05;2.30;;;;;;;;;;5008606;28;20042;-57
2022/04/24 09:04:24;;;;;;;6.95;2.70;;;;;;;;;;5008285;28;20042;-57
2022/04/24 09:06:55;;;;;;;4.53;2.13;;;;;;;;;;4989325;28;20499;-58
2022/04/24 09:09:22;;;;;;;6.57;2.63;;;;;;;;;;5007838;28;20119;-57
2022/04/24 09:11:48;;;;;;;7.32;2.70;;;;;;;;;;5008294;28;20078;-57
2022/04/24 09:14:14;;;;;;;7.15;2.45;;;;;;;;;;5008798;28;20052;-57
2022/04/24 09:16:47;;;;;;;4.53;2.30;;;;;;;;;;5008095;28;20049;-57
2022/04/24 09:19:20;;;;;;;4.18;2.10;;;;;;;;;;5007753;28;20061;-57
2022/04/24 09:21:46;;;;;;;12.00;2.45;;;;;;;;;;5006914;28;20049;-57
2022/04/24 09:24:14;;;;;;;4.38;2.30;;;;;;;;;;5008656;28;20058;-57
2022/04/24 09:26:50;;;;;;;6.40;2.40;;;;;;;;;;5007833;28;20462;-57
2022/04/24 09:29:17;;;;;;;5.15;2.38;;;;;;;;;;5011454;28;20656;-57
2022/04/24 09:31:45;;;;;;;4.82;2.53;;;;;;;;;;5008107;28;20048;-58
2022/04/24 09:34:12;;;;;;;6.82;2.20;;;;;;;;;;5018655;28;20053;-57
2022/04/24 09:36:38;;;;;;;7.15;2.70;;;;;;;;;;5007794;28;20120;-58
2022/04/24 09:39:04;;;;;;;4.10;2.38;;;;;;;;;;5008846;28;20041;-58
2022/04/24 09:41:30;;;;;;;6.57;2.42;;;;;;;;;;5026171;28;20406;-57
2022/04/24 09:43:56;;;;;;;6.05;2.40;;;;;;;;;;5028609;28;20045;-57
2022/04/24 09:46:26;;;;;;;5.68;2.70;;;;;;;;;;5013666;28;20052;-57
2022/04/24 09:48:53;;;;;;;4.93;2.83;;;;;;;;;;5024551;28;20087;-57
2022/04/24 09:51:21;;;;;;;3.63;2.33;;;;;;;;;;5024247;28;20847;-57
2022/04/24 09:53:48;;;;;;;9.38;2.90;;;;;;;;;;5024703;28;20445;-57
2022/04/24 09:56:16;;;;;;;5.03;2.85;;;;;;;;;;5024810;28;20059;-57
2022/04/24 09:58:45;;;;;;;4.90;2.55;;;;;;;;;;5024355;28;20041;-57
2022/04/24 10:01:13;;;;;;;6.03;2.63;;;;;;;;;;5023714;28;20049;-57
2022/04/24 10:03:39;;;;;;;6.80;2.60;;;;;;;;;;5004749;28;20037;-57
2022/04/24 10:06:06;;;;;;;5.22;2.60;;;;;;;;;;5004464;28;20050;-57
2022/04/24 10:08:34;;;;;;;6.93;2.70;;;;;;;;;;5004389;28;20545;-57
2022/04/24 10:11:02;;;;;;;8.55;2.78;;;;;;;;;;5004799;28;20054;-57
2022/04/24 10:13:29;;;;;;;7.00;2.20;;;;;;;;;;4987571;28;20092;-57
2022/04/24 10:16:01;;;;;;;5.10;2.15;;;;;;;;;;5004841;28;20053;-57
2022/04/24 10:18:37;;;;;;;6.57;2.58;;;;;;;;;;5005698;28;20056;-57
2022/04/24 10:21:10;;;;;;;4.05;2.13;;;;;;;;;;5003657;28;20174;-58
2022/04/24 10:23:37;;;;;;;3.88;2.08;;;;;;;;;;5004235;28;20057;-57
2022/04/24 10:26:15;;;;;;;5.32;1.90;;;;;;;;;;5019001;28;20045;-57
2022/04/24 10:28:41;;;;;;;5.22;1.92;;;;;;;;;;5023805;28;20045;-57
2022/04/24 10:31:09;;;;;;;5.90;2.22;;;;;;;;;;5021231;28;20050;-57
2022/04/24 10:33:36;;;;;;;8.50;2.17;;;;;;;;;;5006765;28;20434;-58
2022/04/24 10:36:07;;;;;;;3.58;2.08;;;;;;;;;;5008561;28;20052;-57
2022/04/24 10:38:45;;;;;;;5.90;2.22;;;;;;;;;;5006453;28;20050;-58
2022/04/24 10:41:11;;;;;;;;;;;;;;;;;;5006667;28;20577;-58
2022/04/24 10:43:39;;;;;;;5.32;1.88;;;;;;;;;;5006119;28;19961;-58
2022/04/24 10:46:23;;;;;;;10.77;2.85;;;;;;;;;;5006271;28;20061;-58
2022/04/24 10:48:50;;;;;;;4.10;1.67;;;;;;;;;;5006096;28;20050;-57
2022/04/24 10:51:31;;;;;;;4.15;1.80;;;;;;;;;;5004577;28;20044;-58
2022/04/24 10:53:59;;;;;;;4.75;2.75;;;;;;;;;;5006497;28;20045;-58
2022/04/24 10:56:25;;;;;;;6.03;1.80;;;;;;;;;;5005658;28;20046;-57
2022/04/24 10:58:52;;;;;;;5.53;1.85;;;;;;;;;;5005750;28;20499;-58
2022/04/24 11:01:18;;;;;;;9.90;1.88;;;;;;;;;;5005628;28;20112;-58
2022/04/24 11:03:45;;;;;;;12.38;2.00;;;;;;;;;;5004955;28;20125;-58
2022/04/24 11:06:19;;;;;;;4.05;1.58;;;;;;;;;;5005121;28;20045;-59
2022/04/24 11:08:46;;;;;;;3.35;1.70;;;;;;;;;;5005236;28;20064;-59
2022/04/24 11:11:13;;;;;;;4.07;1.63;;;;;;;;;;5006121;28;20134;-58
2022/04/24 11:13:39;;;;;;;6.07;1.85;;;;;;;;;;5005588;28;20129;-58
2022/04/24 11:16:07;;;;;;;6.47;1.73;;;;;;;;;;5003855;28;20041;-58
2022/04/24 11:18:33;;;;;;;4.15;1.75;;;;;;;;;;5005084;28;20104;-58
2022/04/24 11:21:03;;;;;;;4.53;1.85;;;;;;;;;;5005653;28;20038;-58
2022/04/24 11:23:31;;;;;;;5.15;2.03;;;;;;;;;;5006054;28;20058;-58
2022/04/24 11:25:58;;;;;;;10.68;2.42;;;;;;;;;;5005879;28;20041;-59
2022/04/24 11:28:37;;;;;;;5.82;2.30;;;;;;;;;;5005134;28;20121;-59
2022/04/24 11:31:11;;;;;;;9.40;3.00;;;;;;;;;;5005279;28;20085;-59
2022/04/24 11:33:37;;;;;;;4.35;1.75;;;;;;;;;;5005149;28;20052;-58
2022/04/24 11:36:05;;;;;;;5.18;2.17;;;;;;;;;;5004806;28;20578;-59
2022/04/24 11:38:31;;;;;;;3.83;2.13;;;;;;;;;;5004506;28;20046;-59
2022/04/24 11:41:02;;;;;;;3.78;2.05;;;;;;;;;;5005795;28;20112;-58
2022/04/24 11:43:29;;;;;;;5.13;1.92;;;;;;;;;;5005529;28;20077;-58
2022/04/24 11:51:25;;;;;;;6.47;2.00;;;;;;;;;;5004635;28;20049;-59
2022/04/24 11:53:54;;;;;;;5.05;2.15;;;;;;;;;;5005081;28;20099;-58
2022/04/24 11:56:20;;;;;;;;;;;;;;;;;;5005192;28;20049;-58
2022/04/24 11:58:48;;;;;;;8.07;1.70;;;;;;;;;;5004783;28;20326;-59
2022/04/24 12:01:17;;;;;;;5.88;1.90;;;;;;;;;;5005012;28;20046;-58
2022/04/24 12:03:44;;;;;;;5.38;2.00;;;;;;;;;;5005028;28;20053;-58
2022/04/24 12:06:11;;;;;;;3.87;1.67;;;;;;;;;;5004196;28;20056;-58
2022/04/24 12:08:41;;;;;;;5.22;1.33;;;;;;;;;;5003749;28;20050;-58
2022/04/24 12:11:07;;;;;;;3.55;1.80;;;;;;;;;;5004587;28;20158;-58
2022/04/24 12:13:34;;;;;;;6.70;1.80;;;;;;;;;;5004662;28;20037;-58
2022/04/24 12:16:01;;;;;;;2.42;1.20;;;;;;;;;;4987251;28;20197;-58
2022/04/24 12:18:28;;;;;;;6.55;1.52;;;;;;;;;;5005174;28;20040;-59
2022/04/24 12:20:55;;;;;;;5.38;1.85;;;;;;;;;;4986268;28;20069;-58
2022/04/24 12:23:22;;;;;;;4.32;2.00;;;;;;;;;;5004668;28;20519;-59
2022/04/24 12:25:50;;;;;;;3.88;2.38;;;;;;;;;;5004592;28;20041;-58
2022/04/24 12:28:28;;;;;;;5.85;2.53;;;;;;;;;;5004993;28;20503;-58
2022/04/24 12:30:56;;;;;;;5.13;2.28;;;;;;;;;;5004577;28;20046;-58
2022/04/24 12:33:22;;;;;;;4.47;2.28;;;;;;;;;;5004628;28;20085;-58
2022/04/24 12:35:48;;;;;;;4.70;2.28;;;;;;;;;;5003094;28;20129;-58
2022/04/24 12:38:16;;;;;;;18.42;2.55;;;;;;;;;;5004606;28;20096;-59
2022/04/24 12:40:53;;;;;;;6.80;2.63;;;;;;;;;;5003710;28;20045;-58
2022/04/24 12:43:27;;;;;;;6.60;2.40;;;;;;;;;;5004591;28;20042;-58
2022/04/24 12:45:55;;;;;;;7.22;2.25;;;;;;;;;;5003515;28;20535;-58
2022/04/24 12:48:22;;;;;;;8.43;2.28;;;;;;;;;;5004327;28;20054;-58
2022/04/24 12:50:50;;;;;;;3.30;1.85;;;;;;;;;;5002152;28;20058;-58
2022/04/24 12:53:16;;;;;;;2.85;1.98;;;;;;;;;;5001956;28;20058;-58
2022/04/24 12:55:43;;;;;;;21.15;2.92;;;;;;;;;;5001521;28;20046;-58
2022/04/24 12:58:14;;;;;;;8.88;2.35;;;;;;;;;;5006231;28;20045;-59
2022/04/24 13:00:41;;;;;;;25.60;2.53;;;;;;;;;;5002786;28;20050;-57
2022/04/24 13:03:08;;;;;;;5.60;2.23;;;;;;;;;;5001705;28;20042;-58
2022/04/24 13:05:37;;;;;;;6.78;2.72;;;;;;;;;;5000525;28;20293;-57
2022/04/24 13:08:04;;;;;;;5.97;2.55;;;;;;;;;;5001442;28;20046;-58
2022/04/24 13:10:30;;;;;;;4.60;2.10;;;;;;;;;;5001577;28;20049;-58
2022/04/24 13:13:01;;;;;;;6.82;2.95;;;;;;;;;;5001719;28;20081;-58
2022/04/24 13:15:30;;;;;;;6.50;2.65;;;;;;;;;;5002158;28;20054;-58
2022/04/24 13:18:07;;;;;;;5.72;2.13;;;;;;;;;;5002334;28;20144;-58
2022/04/24 13:20:36;;;;;;;7.07;2.58;;;;;;;;;;5003123;28;20046;-58
2022/04/24 13:23:04;;;;;;;5.25;2.20;;;;;;;;;;5005063;28;20052;-59
2022/04/24 13:25:30;;;;;;;4.17;2.13;;;;;;;;;;5005012;28;20167;-58
2022/04/24 13:27:56;;;;;;;7.82;2.67;;;;;;;;;;5005949;28;20308;-58
2022/04/24 13:30:23;;;;;;;18.17;3.10;;;;;;;;;;5005564;28;20136;-58
2022/04/24 13:32:49;;;;;;;6.22;2.60;;;;;;;;;;4987525;28;20046;-58
2022/04/24 13:35:15;;;;;;;8.43;2.60;;;;;;;;;;5004660;28;20175;-58
2022/04/24 13:40:26;;;;;;;4.25;2.38;;;;;;;;;;5005849;28;20049;-58
2022/04/24 13:42:53;;;;;;;4.93;2.35;;;;;;;;;;5005370;28;20163;-58
2022/04/24 13:45:19;;;;;;;4.43;2.70;;;;;;;;;;5004505;28;20046;-58
2022/04/24 13:47:45;;;;;;;6.28;2.95;;;;;;;;;;5004228;28;20571;-58
2022/04/24 13:50:12;;;;;;;12.52;3.20;;;;;;;;;;5005746;28;20049;-58
2022/04/24 13:52:38;;;;;;;5.00;2.50;;;;;;;;;;5008592;28;20066;-58
2022/04/24 13:55:05;;;;;;;5.07;2.53;;;;;;;;;;5004430;28;20046;-58
2022/04/24 13:57:32;;;;;;;4.70;2.45;;;;;;;;;;5008322;28;20132;-58
2022/04/24 13:59:58;;;;;;;6.25;2.47;;;;;;;;;;5009534;28;20124;-58
2022/04/24 14:02:26;;;;;;;4.03;2.13;;;;;;;;;;5003940;28;20046;-58
2022/04/24 14:04:52;;;;;;;9.50;2.80;;;;;;;;;;5007049;28;20691;-58
2022/04/24 14:07:19;;;;;;;5.57;2.60;;;;;;;;;;5014508;28;20729;-58
2022/04/24 14:09:47;;;;;;;4.93;2.42;;;;;;;;;;5008820;28;20076;-58
2022/04/24 14:12:14;;;;;;;7.53;2.28;;;;;;;;;;5004004;28;20135;-58
2022/04/24 14:14:40;;;;;;;4.15;2.33;;;;;;;;;;5003364;28;20053;-60
2022/04/24 14:17:06;;;;;;;4.35;2.15;;;;;;;;;;5004862;28;20049;-59
2022/04/24 14:19:34;;;;;;;3.58;2.22;;;;;;;;;;5003346;28;20053;-58
2022/04/24 14:22:01;;;;;;;;;;;;;;;;;;5003728;28;20137;-58
2022/04/24 14:24:27;;;;;;;7.35;2.30;;;;;;;;;;5005050;28;19960;-58
2022/04/24 14:26:53;;;;;;;4.72;2.33;;;;;;;;;;5003100;28;20068;-58
2022/04/24 14:29:20;;;;;;;6.57;2.22;;;;;;;;;;5003267;28;20300;-59
2022/04/24 14:31:47;;;;;;;5.75;2.60;;;;;;;;;;5002542;28;20052;-58
2022/04/24 14:34:13;;;;;;;5.00;2.13;;;;;;;;;;5002565;28;20757;-58
2022/04/24 14:36:39;;;;;;;6.18;2.58;;;;;;;;;;5002257;28;20049;-58
2022/04/24 14:39:06;;;;;;;8.35;2.17;;;;;;;;;;5003184;28;20037;-59
2022/04/24 14:41:33;;;;;;;4.50;2.55;;;;;;;;;;5003281;28;20046;-59
2022/04/24 14:44:00;;;;;;;6.13;2.47;;;;;;;;;;5009190;28;20045;-57
2022/04/24 14:57:27;;;;;;;7.72;2.47;;;;;;;;;;5007602;28;20107;-58